Time;durP1;ratioP1;P1;durP2;ratioP2;P2;SDS_P1;SDS_P2;PMS_P1;PMS_P2;Temp;Humidity;BMP_temperature;BMP_pressure;BME280_temperature;BME280_humidity;BME280_pressure;Samples;Min_cycle;Max_cycle;Signal;HPM_P1;HPM_P2
2021/01/02 00:01:16;;;;;;;;;;;;;;;10.15;69.92;100224.75;5027891;28;19917;-43
2021/01/02 00:03:41;;;;;;;;;;;;;;;10.14;68.97;100229.31;5021936;28;19932;-43
2021/01/02 00:06:17;;;;;;;;;;;;;;;10.20;69.43;100227.50;5028506;28;19925;-43
2021/01/02 00:08:46;;;;;;;;;;;;;;;10.29;68.81;100219.81;5028681;28;19967;-45
2021/01/02 00:11:27;;;;;;;;;;;;;;;10.17;69.29;100234.16;5027486;28;20382;-44
2021/01/02 00:14:10;;;;;;;;;;;;;;;10.22;68.80;100230.75;5027244;28;19950;-45
2021/01/02 00:16:51;;;;;;;;;;;;;;;10.14;68.71;100231.97;5027365;28;19967;-44
2021/01/02 00:19:45;;;;;;;;;;;;;;;10.14;69.21;100234.66;5022905;28;19921;-50
2021/01/02 00:22:12;;;;;;;;;;;;;;;10.12;67.04;100227.94;5027144;28;19921;-44
2021/01/02 00:24:41;;;;;;;;;;;;;;;10.33;66.61;100231.72;5028275;28;20271;-45
2021/01/02 00:27:17;;;;;;;;;;;;;;;10.40;65.63;100237.69;5022957;28;19925;-43
2021/01/02 00:30:03;;;;;;;;;;;;;;;10.41;65.00;100228.56;5031189;28;19986;-43
2021/01/02 00:32:51;;;;;;;;;;;;;;;10.45;66.45;100239.59;5031870;28;20057;-45
2021/01/02 00:35:17;;;;;;;;;;;;;;;10.42;66.20;100234.75;5025700;28;19925;-45
2021/01/02 00:37:44;;;;;;;;;;;;;;;10.35;65.38;100240.31;5032005;28;20012;-44
2021/01/02 00:40:11;;;;;;;;;;;;;;;10.43;64.73;100234.53;5031380;28;19943;-45
2021/01/02 00:42:38;;;;;;;;;;;;;;;10.52;62.07;100246.41;5031962;28;20005;-45
2021/01/02 00:45:04;;;;;;;;;;;;;;;10.47;60.61;100238.31;5031544;28;19916;-47
2021/01/02 00:47:40;;;;;;;;;;;;;;;10.55;61.72;100234.38;5030401;28;19929;-43
2021/01/02 00:50:07;;;;;;;;;;;;;;;10.73;61.24;100246.63;5030975;28;19948;-44
2021/01/02 00:52:55;;;;;;;;;;;;;;;10.74;61.65;100234.84;5031454;28;19921;-44
2021/01/02 00:55:23;;;;;;;;;;;;;;;10.61;60.75;100244.09;5031366;28;20272;-44
2021/01/02 00:57:49;;;;;;;;;;;;;;;10.53;59.85;100242.66;5031218;28;19921;-42
2021/01/02 01:00:16;;;;;;;;;;;;;;;10.71;59.32;100240.69;5031500;28;20027;-42
2021/01/02 01:03:10;;;;;;;;;;;;;;;10.73;58.80;100238.59;5031542;28;20287;-43
2021/01/02 01:05:45;;;;;;;;;;;;;;;10.69;58.30;100248.19;5028487;28;19921;-44
2021/01/02 01:08:14;;;;;;;;;;;;;;;10.73;58.27;100249.31;5024784;28;20290;-43
2021/01/02 01:10:39;;;;;;;;;;;;;;;10.84;58.12;100264.44;5030823;28;19920;-44
2021/01/02 01:13:18;;;;;;;;;;;;;;;10.69;57.85;100249.00;5031231;28;20431;-42
2021/01/02 01:15:44;;;;;;;;;;;;;;;10.75;58.39;100255.25;5031311;28;20361;-45
2021/01/02 01:18:18;;;;;;;;;;;;;;;10.74;57.41;100249.03;5030926;28;20023;-42
2021/01/02 01:20:44;;;;;;;;;;;;;;;10.76;58.04;100235.38;5031253;28;19917;-43
2021/01/02 01:23:20;;;;;;;;;;;;;;;10.66;57.79;100248.69;5029749;28;20387;-43
2021/01/02 01:25:45;;;;;;;;;;;;;;;10.76;58.80;100246.13;5030753;28;19917;-43
2021/01/02 01:28:17;;;;;;;;;;;;;;;10.75;58.32;100241.84;5030939;28;19931;-44
2021/01/02 01:30:43;;;;;;;;;;;;;;;10.80;58.15;100241.88;5031152;28;19970;-43
2021/01/02 01:33:12;;;;;;;;;;;;;;;10.79;58.18;100251.78;5031192;28;19925;-43
2021/01/02 01:35:42;;;;;;;;;;;;;;;10.65;59.69;100253.25;5030870;28;19931;-43
2021/01/02 01:38:11;;;;;;;;;;;;;;;10.71;58.67;100246.88;5023474;28;19925;-46
2021/01/02 01:40:38;;;;;;;;;;;;;;;10.77;58.75;100243.19;5030603;28;19925;-42
2021/01/02 01:43:05;;;;;;;;;;;;;;;10.82;57.96;100238.94;5022841;28;19921;-44
2021/01/02 01:45:39;;;;;;;;;;;;;;;10.78;58.43;100238.63;5030539;28;20401;-42
2021/01/02 01:48:09;;;;;;;;;;;;;;;10.70;59.41;100237.22;5030764;28;19960;-42
2021/01/02 01:51:07;;;;;;;;;;;;;;;10.65;59.67;100250.56;5029583;28;20593;-42
2021/01/02 01:53:51;;;;;;;;;;;;;;;10.71;58.86;100246.06;5027745;28;19920;-44
2021/01/02 01:56:23;;;;;;;;;;;;;;;10.65;58.18;100231.00;5030795;28;20371;-44
2021/01/02 01:58:51;;;;;;;;;;;;;;;10.73;56.96;100242.09;5030719;28;20639;-43
2021/01/02 02:01:22;;;;;;;;;;;;;;;10.84;56.98;100248.34;5030275;28;20020;-43
2021/01/02 02:03:58;;;;;;;;;;;;;;;10.87;57.62;100238.97;5030235;28;19972;-46
2021/01/02 02:06:30;;;;;;;;;;;;;;;10.87;57.37;100252.38;5023409;28;19925;-44
2021/01/02 02:08:58;;;;;;;;;;;;;;;10.70;57.13;100247.13;5030228;28;19920;-45
2021/01/02 02:11:35;;;;;;;;;;;;;;;10.83;57.52;100246.72;5028931;28;19924;-45
2021/01/02 02:14:20;;;;;;;;;;;;;;;10.91;56.37;100251.63;5026109;28;19921;-45
2021/01/02 02:16:57;;;;;;;;;;;;;;;10.94;57.44;100251.13;5032988;28;20007;-45
2021/01/02 02:20:00;;;;;;;;;;;;;;;10.89;56.74;100248.41;5033195;28;20427;-43
2021/01/02 02:22:27;;;;;;;;;;;;;;;10.87;56.51;100250.53;5030493;28;19921;-42
2021/01/02 02:24:54;;;;;;;;;;;;;;;10.76;56.68;100259.53;5030524;28;20367;-43
2021/01/02 02:27:39;;;;;;;;;;;;;;;10.79;57.07;100245.63;5031155;28;19968;-43
2021/01/02 02:30:06;;;;;;;;;;;;;;;10.75;55.79;100256.03;5032504;28;19981;-44
2021/01/02 02:32:34;;;;;;;;;;;;;;;10.83;55.89;100257.44;5033051;28;19960;-42
2021/01/02 02:35:02;;;;;;;;;;;;;;;10.94;55.03;100245.78;5031957;28;20363;-42
2021/01/02 02:37:27;;;;;;;;;;;;;;;10.92;55.97;100249.75;5032630;28;19925;-43
2021/01/02 02:39:52;;;;;;;;;;;;;;;10.84;55.55;100250.22;5032549;28;19927;-42
2021/01/02 02:42:19;;;;;;;;;;;;;;;10.90;55.91;100247.31;5032043;28;20294;-44
2021/01/02 02:44:45;;;;;;;;;;;;;;;10.83;55.41;100244.03;5032489;28;19979;-43
2021/01/02 02:47:13;;;;;;;;;;;;;;;10.95;55.82;100250.06;5032915;28;19967;-42
2021/01/02 02:49:42;;;;;;;;;;;;;;;10.94;57.10;100239.63;5031666;28;19925;-44
2021/01/02 02:52:36;;;;;;;;;;;;;;;10.93;56.73;100243.34;5032644;28;20043;-44
2021/01/02 02:55:02;;;;;;;;;;;;;;;10.85;57.57;100241.09;5031925;28;19932;-43
2021/01/02 02:57:28;;;;;;;;;;;;;;;10.90;57.19;100241.16;5030776;28;19980;-42
2021/01/02 02:59:54;;;;;;;;;;;;;;;10.92;56.47;100239.84;5032536;28;19924;-42
2021/01/02 03:02:21;;;;;;;;;;;;;;;10.89;57.06;100244.94;5032534;28;20288;-43
2021/01/02 03:04:46;;;;;;;;;;;;;;;10.85;57.11;100228.53;5032671;28;19921;-42
2021/01/02 03:07:12;;;;;;;;;;;;;;;10.82;56.56;100234.41;5032641;28;19920;-42
2021/01/02 03:09:37;;;;;;;;;;;;;;;10.79;56.38;100230.31;5031987;28;19928;-44
2021/01/02 03:12:02;;;;;;;;;;;;;;;10.91;57.38;100216.78;5032250;28;19913;-42
2021/01/02 03:14:28;;;;;;;;;;;;;;;10.81;56.53;100222.03;5032282;28;20062;-42
2021/01/02 03:16:57;;;;;;;;;;;;;;;10.82;57.16;100229.03;5032452;28;19920;-44
2021/01/02 03:19:23;;;;;;;;;;;;;;;10.92;57.03;100209.53;5031268;28;20350;-44
2021/01/02 03:21:48;;;;;;;;;;;;;;;10.92;58.66;100214.88;5032534;28;19912;-47
2021/01/02 03:24:13;;;;;;;;;;;;;;;10.95;58.10;100215.19;5032137;28;19928;-43
2021/01/02 03:26:39;;;;;;;;;;;;;;;10.95;57.09;100215.19;5031429;28;19997;-45
2021/01/02 03:29:04;;;;;;;;;;;;;;;10.82;57.26;100206.75;5031622;28;19928;-42
2021/01/02 03:31:29;;;;;;;;;;;;;;;10.86;57.28;100203.31;5032536;28;19917;-42
2021/01/02 03:33:55;;;;;;;;;;;;;;;10.92;58.06;100190.75;5031808;28;19928;-42
2021/01/02 03:36:20;;;;;;;;;;;;;;;10.87;57.90;100188.84;5032026;28;19921;-45
2021/01/02 03:38:52;;;;;;;;;;;;;;;10.83;59.06;100182.34;5032059;28;19984;-44
2021/01/02 03:41:18;;;;;;;;;;;;;;;10.89;58.72;100180.56;5032300;28;19917;-47
2021/01/02 03:43:43;;;;;;;;;;;;;;;11.03;57.98;100172.91;5031038;28;20027;-42
2021/01/02 03:46:08;;;;;;;;;;;;;;;11.03;57.88;100171.00;5032197;28;19916;-43
2021/01/02 03:48:34;;;;;;;;;;;;;;;10.87;58.09;100166.56;5032111;28;20367;-43
2021/01/02 03:50:59;;;;;;;;;;;;;;;10.85;58.30;100163.34;5031508;28;20275;-42
2021/01/02 03:53:24;;;;;;;;;;;;;;;10.85;59.83;100171.38;5031540;28;19942;-42
2021/01/02 03:55:49;;;;;;;;;;;;;;;10.97;58.64;100162.13;5031448;28;20010;-43
2021/01/02 03:58:15;;;;;;;;;;;;;;;10.96;58.26;100160.50;5031553;28;20325;-43
2021/01/02 04:00:40;;;;;;;;;;;;;;;10.94;59.42;100161.81;5031380;28;19924;-43
2021/01/02 04:03:05;;;;;;;;;;;;;;;10.93;59.52;100161.00;5035676;28;19920;-44
2021/01/02 04:05:33;;;;;;;;;;;;;;;10.88;59.75;100160.16;5035642;28;20375;-44
2021/01/02 04:07:58;;;;;;;;;;;;;;;10.68;60.85;100158.09;5035299;28;19917;-43
2021/01/02 04:10:24;;;;;;;;;;;;;;;10.75;59.48;100143.41;5034940;28;19962;-42
2021/01/02 04:12:49;;;;;;;;;;;;;;;10.81;59.01;100143.47;5035282;28;19944;-43
2021/01/02 04:15:14;;;;;;;;;;;;;;;10.83;59.76;100152.84;5034889;28;19975;-44
2021/01/02 04:17:39;;;;;;;;;;;;;;;10.77;60.36;100152.00;5035050;28;19987;-44
2021/01/02 04:20:05;;;;;;;;;;;;;;;10.78;59.02;100147.44;5035030;28;20350;-43
2021/01/02 04:22:32;;;;;;;;;;;;;;;10.90;58.68;100144.59;5035231;28;19921;-47
2021/01/02 04:24:58;;;;;;;;;;;;;;;10.92;58.69;100148.66;5035334;28;19979;-44
2021/01/02 04:27:23;;;;;;;;;;;;;;;10.83;58.96;100147.50;5034663;28;20405;-45
2021/01/02 04:29:48;;;;;;;;;;;;;;;10.85;58.92;100139.19;5034882;28;20382;-46
2021/01/02 04:32:13;;;;;;;;;;;;;;;10.94;58.44;100141.16;5035418;28;19967;-42
2021/01/02 04:34:39;;;;;;;;;;;;;;;10.93;58.63;100139.53;5034448;28;19921;-42
2021/01/02 04:37:04;;;;;;;;;;;;;;;10.93;58.97;100134.16;5034728;28;19917;-42
2021/01/02 04:39:29;;;;;;;;;;;;;;;10.90;59.12;100129.31;5034041;28;20058;-43
2021/01/02 04:41:56;;;;;;;;;;;;;;;10.84;59.09;100132.22;5033691;28;20275;-42
2021/01/02 04:44:21;;;;;;;;;;;;;;;10.95;59.02;100137.41;5034822;28;19921;-42
2021/01/02 04:46:47;;;;;;;;;;;;;;;10.84;58.90;100140.28;5034994;28;19928;-44
2021/01/02 04:49:13;;;;;;;;;;;;;;;10.74;58.36;100149.03;5034858;28;20003;-44
2021/01/02 04:51:38;;;;;;;;;;;;;;;10.62;58.10;100151.06;5034492;28;19963;-43
2021/01/02 04:54:05;;;;;;;;;;;;;;;10.71;58.71;100166.44;5034546;28;20371;-43
2021/01/02 04:56:34;;;;;;;;;;;;;;;10.67;58.47;100167.19;5034115;28;20223;-44
2021/01/02 04:59:07;;;;;;;;;;;;;;;10.68;58.38;100166.94;5034044;28;20475;-42
2021/01/02 05:01:32;;;;;;;;;;;;;;;10.66;58.66;100160.22;5035210;28;20008;-45
2021/01/02 05:03:58;;;;;;;;;;;;;;;10.62;58.71;100159.09;5034983;28;20347;-44
2021/01/02 05:06:23;;;;;;;;;;;;;;;10.64;59.01;100155.13;5034009;28;20334;-43
2021/01/02 05:08:49;;;;;;;;;;;;;;;10.79;58.31;100155.25;5032828;28;20000;-44
2021/01/02 05:11:15;;;;;;;;;;;;;;;10.91;58.11;100171.19;5033177;28;19917;-42
2021/01/02 05:13:40;;;;;;;;;;;;;;;10.87;58.91;100177.28;5032960;28;19928;-43
2021/01/02 05:16:34;;;;;;;;;;;;;;;10.48;60.39;100201.59;5034343;28;20257;-42
2021/01/02 05:19:04;;;;;;;;;;;;;;;10.56;60.66;100231.44;5033819;28;19921;-43
2021/01/02 05:21:30;;;;;;;;;;;;;;;10.46;60.40;100225.97;5033466;28;19920;-42
2021/01/02 05:24:20;;;;;;;;;;;;;;;10.42;60.96;100216.81;5033723;28;19924;-47
2021/01/02 05:26:46;;;;;;;;;;;;;;;10.42;60.58;100229.41;5033326;28;20359;-42
2021/01/02 05:29:13;;;;;;;;;;;;;;;10.37;60.65;100225.59;5033500;28;20213;-42
2021/01/02 05:31:39;;;;;;;;;;;;;;;10.23;61.78;100225.13;5032501;28;19983;-43
2021/01/02 05:34:05;;;;;;;;;;;;;;;10.17;62.73;100239.53;5026314;28;19924;-45
2021/01/02 05:36:31;;;;;;;;;;;;;;;10.14;62.91;100240.03;5033753;28;19917;-45
2021/01/02 05:38:57;;;;;;;;;;;;;;;10.03;63.72;100243.63;5033596;28;19924;-43
2021/01/02 05:41:22;;;;;;;;;;;;;;;10.03;64.50;100249.00;5033620;28;19963;-43
2021/01/02 05:43:48;;;;;;;;;;;;;;;9.91;65.29;100249.09;5031912;28;19979;-46
2021/01/02 05:46:13;;;;;;;;;;;;;;;10.01;65.47;100257.28;5033637;28;19921;-43
2021/01/02 05:48:39;;;;;;;;;;;;;;;9.93;65.50;100246.97;5032933;28;19917;-42
2021/01/02 05:51:06;;;;;;;;;;;;;;;9.88;65.38;100236.19;5026017;28;19916;-42
2021/01/02 05:53:35;;;;;;;;;;;;;;;9.89;66.08;100227.09;5033368;28;19940;-44
2021/01/02 05:56:07;;;;;;;;;;;;;;;10.02;65.29;100234.78;5032967;28;19921;-44
2021/01/02 05:58:33;;;;;;;;;;;;;;;9.96;63.33;100230.41;5033414;28;19924;-43
2021/01/02 06:01:03;;;;;;;;;;;;;;;9.99;63.27;100226.41;5033253;28;19917;-44
2021/01/02 06:03:29;;;;;;;;;;;;;;;9.86;62.39;100227.59;5033341;28;19918;-42
2021/01/02 06:06:03;;;;;;;;;;;;;;;9.82;62.78;100235.31;5033346;28;19923;-41
2021/01/02 06:08:36;;;;;;;;;;;;;;;9.74;63.12;100227.69;5033578;28;19999;-43
2021/01/02 06:11:05;;;;;;;;;;;;;;;9.70;64.33;100229.25;5046774;28;20371;-43
2021/01/02 06:13:32;;;;;;;;;;;;;;;9.60;64.36;100229.91;5031986;28;19917;-44
2021/01/02 06:15:58;;;;;;;;;;;;;;;9.52;64.22;100224.16;5031472;28;19921;-43
2021/01/02 06:18:23;;;;;;;;;;;;;;;9.58;64.56;100226.66;5031696;28;20429;-43
2021/01/02 06:20:49;;;;;;;;;;;;;;;9.54;65.10;100222.06;5031534;28;19912;-43
2021/01/02 06:23:16;;;;;;;;;;;;;;;9.42;65.70;100220.25;5032719;28;19925;-43
2021/01/02 06:25:42;;;;;;;;;;;;;;;9.51;63.00;100218.00;5032557;28;19948;-42
2021/01/02 06:28:07;;;;;;;;;;;;;;;9.57;62.92;100226.91;5032527;28;20331;-46
2021/01/02 06:30:33;;;;;;;;;;;;;;;9.40;63.47;100217.03;5032791;28;19920;-44
2021/01/02 06:32:58;;;;;;;;;;;;;;;9.27;64.02;100225.38;5032683;28;20437;-45
2021/01/02 06:35:24;;;;;;;;;;;;;;;9.28;64.49;100227.00;5032463;28;20019;-46
2021/01/02 06:37:49;;;;;;;;;;;;;;;9.37;62.77;100230.09;5032695;28;19929;-42
2021/01/02 06:40:21;;;;;;;;;;;;;;;9.34;63.49;100233.25;5032461;28;19962;-46
2021/01/02 06:42:53;;;;;;;;;;;;;;;9.23;65.33;100224.25;5032071;28;20378;-49
2021/01/02 06:45:36;;;;;;;;;;;;;;;9.17;65.71;100214.50;5032506;28;20015;-43
2021/01/02 06:48:17;;;;;;;;;;;;;;;9.15;67.28;100216.59;5032220;28;19986;-44
2021/01/02 06:50:45;;;;;;;;;;;;;;;9.15;66.66;100205.91;5031644;28;19917;-42
2021/01/02 06:53:21;;;;;;;;;;;;;;;9.16;67.05;100204.88;5031965;28;19917;-42
2021/01/02 06:55:55;;;;;;;;;;;;;;;9.11;67.27;100205.59;5031804;28;20058;-43
2021/01/02 06:58:21;;;;;;;;;;;;;;;9.02;67.42;100207.84;5032022;28;19928;-43
2021/01/02 07:00:46;;;;;;;;;;;;;;;8.97;68.91;100212.31;5030648;28;19932;-43
2021/01/02 07:03:30;;;;;;;;;;;;;;;8.95;67.42;100209.88;5031829;28;19986;-43
2021/01/02 07:05:56;;;;;;;;;;;;;;;9.00;67.47;100214.50;5031783;28;19937;-42
2021/01/02 07:08:40;;;;;;;;;;;;;;;9.00;66.64;100217.97;5032261;28;20084;-43
2021/01/02 07:11:24;;;;;;;;;;;;;;;8.95;66.73;100220.56;5031919;28;19921;-42
2021/01/02 07:14:07;;;;;;;;;;;;;;;8.91;67.09;100222.09;5031810;28;19917;-42
2021/01/02 07:16:43;;;;;;;;;;;;;;;9.02;66.56;100225.75;5032254;28;19917;-46
2021/01/02 07:19:29;;;;;;;;;;;;;;;9.02;66.98;100221.22;5031478;28;19928;-42
2021/01/02 07:22:14;;;;;;;;;;;;;;;8.94;67.57;100231.50;5032013;28;19956;-42
2021/01/02 07:24:41;;;;;;;;;;;;;;;8.88;67.81;100228.72;5031316;28;19960;-42
2021/01/02 07:27:11;;;;;;;;;;;;;;;8.91;67.65;100234.69;5032059;28;19921;-42
2021/01/02 07:29:37;;;;;;;;;;;;;;;8.81;68.07;100244.13;5031567;28;19917;-45
2021/01/02 07:32:04;;;;;;;;;;;;;;;8.69;69.08;100241.47;5032197;28;19917;-44
2021/01/02 07:34:29;;;;;;;;;;;;;;;8.78;69.00;100244.59;5031851;28;19917;-44
2021/01/02 07:36:54;;;;;;;;;;;;;;;8.81;69.00;100248.66;5030443;28;19927;-44
2021/01/02 07:39:19;;;;;;;;;;;;;;;8.69;69.37;100249.50;5030750;28;19932;-42
2021/01/02 07:41:45;;;;;;;;;;;;;;;8.56;70.05;100236.44;5030124;28;19951;-43
2021/01/02 07:44:10;;;;;;;;;;;;;;;8.67;69.96;100248.94;5031227;28;19927;-44
2021/01/02 07:46:43;;;;;;;;;;;;;;;8.78;69.19;100243.78;5031964;28;20338;-43
2021/01/02 07:49:09;;;;;;;;;;;;;;;-146.19;100.00;63747.78;5005852;28;19922;-62
2021/01/02 07:51:34;;;;;;;;;;;;;;;-146.19;100.00;63747.78;5011514;28;19928;-62
2021/01/02 07:54:00;;;;;;;;;;;;;;;-146.19;100.00;63747.78;5019127;28;19925;-61
2021/01/02 07:56:38;;;;;;;;;;;;;;;-146.19;100.00;63747.78;5025153;28;19920;-61
2021/01/02 07:59:22;;;;;;;;;;;;;;;-146.19;100.00;63747.78;5024329;28;19975;-62
2021/01/02 08:01:54;;;;;;;;;;;;;;;-146.19;100.00;63747.78;5024894;28;19921;-61
2021/01/02 08:04:20;;;;;;;;;;;;;;;-146.19;100.00;63747.78;5024149;28;19991;-61
2021/01/02 08:06:56;;;;;;;;;;;;;;;-146.19;100.00;63747.78;5025135;28;20442;-61
2021/01/02 08:09:22;;;;;;;;;;;;;;;-146.19;100.00;63747.78;5023951;28;20020;-61
2021/01/02 08:11:56;;;;;;;;;;;;;;;-146.19;100.00;63747.78;5025016;28;20039;-62
2021/01/02 08:14:22;;;;;;;;;;;;;;;-146.19;100.00;63747.78;5024357;28;19929;-61
2021/01/02 08:16:52;;;;;;;;;;;;;;;-146.19;100.00;63747.78;5023752;28;19925;-62
2021/01/02 08:19:17;;;;;;;;;;;;;;;-146.19;100.00;63747.78;5023542;28;19932;-62
2021/01/02 08:21:43;;;;;;;;;;;;;;;-146.19;100.00;63747.78;5024809;28;19921;-62
2021/01/02 08:24:11;;;;;;;;;;;;;;;-146.19;100.00;63747.78;5024867;28;20330;-62
2021/01/02 08:26:36;;;;;;;;;;;;;;;-146.19;100.00;63747.78;5024568;28;20057;-62
2021/01/02 08:29:02;;;;;;;;;;;;;;;-146.19;100.00;63747.78;5023868;28;20027;-62
2021/01/02 08:31:28;;;;;;;;;;;;;;;-146.19;100.00;63747.78;5019284;28;20393;-62
2021/01/02 08:33:55;;;;;;;;;;;;;;;-146.19;100.00;63747.78;5019336;28;19936;-62
2021/01/02 08:36:20;;;;;;;;;;;;;;;-146.19;100.00;63747.78;5021332;28;19928;-62
2021/01/02 08:39:06;;;;;;;;;;;;;;;-146.19;100.00;63747.78;5018046;28;19921;-61
2021/01/02 08:41:32;;;;;;;;;;;;;;;-146.19;100.00;63747.78;5017921;28;19921;-62
2021/01/02 08:43:57;;;;;;;;;;;;;;;-146.19;100.00;63747.78;5019379;28;19983;-61
2021/01/02 08:46:26;;;;;;;;;;;;;;;-146.19;100.00;63747.78;5020316;28;20425;-61
2021/01/02 08:48:51;;;;;;;;;;;;;;;-146.19;100.00;63747.78;5021276;28;19959;-62
2021/01/02 08:51:22;;;;;;;;;;;;;;;-146.19;100.00;63747.78;5023644;28;20011;-62
2021/01/02 08:53:47;;;;;;;;;;;;;;;-146.19;100.00;63747.78;5025430;28;20000;-61
2021/01/02 08:56:23;;;;;;;;;;;;;;;-146.19;100.00;63747.78;5027967;28;20038;-61
2021/01/02 08:58:48;;;;;;;;;;;;;;;-146.19;100.00;63747.78;5027233;28;19925;-61
2021/01/02 09:01:14;;;;;;;;;;;;;;;-146.19;100.00;63747.78;5027671;28;19921;-61
2021/01/02 09:03:39;;;;;;;;;;;;;;;-146.19;100.00;63747.78;5026506;28;19925;-61
2021/01/02 09:06:20;;;;;;;;;;;;;;;-146.19;100.00;63747.78;5027504;28;19925;-62
2021/01/02 09:08:45;;;;;;;;;;;;;;;-146.19;100.00;63747.78;5026057;28;19925;-62
2021/01/02 09:11:11;;;;;;;;;;;;;;;-146.19;100.00;63747.78;5026421;28;20406;-61
2021/01/02 09:13:36;;;;;;;;;;;;;;;-146.19;100.00;63747.78;5026443;28;19975;-60
2021/01/02 09:16:05;;;;;;;;;;;;;;;-146.19;100.00;63747.78;5027280;28;19960;-60
2021/01/02 09:18:31;;;;;;;;;;;;;;;-146.19;100.00;63747.78;5027033;28;19924;-61
2021/01/02 09:21:05;;;;;;;;;;;;;;;-146.19;100.00;63747.78;5027224;28;20291;-60
2021/01/02 09:23:34;;;;;;;;;;;;;;;-146.19;100.00;63747.78;5027500;28;19921;-60
2021/01/02 09:26:00;;;;;;;;;;;;;;;-146.19;100.00;63747.78;5027533;28;20409;-60
2021/01/02 09:28:26;;;;;;;;;;;;;;;-146.19;100.00;63747.78;5027623;28;19921;-60
2021/01/02 09:30:51;;;;;;;;;;;;;;;-146.19;100.00;63747.78;5026666;28;20023;-60
2021/01/02 09:33:17;;;;;;;;;;;;;;;-146.19;100.00;63747.78;5025076;28;20482;-60
2021/01/02 09:35:46;;;;;;;;;;;;;;;-146.19;100.00;63747.78;5024640;28;19921;-60
2021/01/02 09:38:12;;;;;;;;;;;;;;;-146.19;100.00;63747.78;5025286;28;19990;-60
2021/01/02 09:40:41;;;;;;;;;;;;;;;-146.19;100.00;63747.78;5024072;28;20364;-60
2021/01/02 09:43:08;;;;;;;;;;;;;;;-146.19;100.00;63747.78;5023759;28;19928;-61
2021/01/02 09:45:34;;;;;;;;;;;;;;;-146.19;100.00;63747.78;5022072;28;19975;-61
2021/01/02 09:47:59;;;;;;;;;;;;;;;-146.19;100.00;63747.78;5024348;28;19921;-60
2021/01/02 09:50:24;;;;;;;;;;;;;;;-146.19;100.00;63747.78;5022127;28;20039;-60
2021/01/02 09:52:50;;;;;;;;;;;;;;;-146.19;100.00;63747.78;5024098;28;20404;-60
2021/01/02 09:55:15;;;;;;;;;;;;;;;-146.19;100.00;63747.78;5024120;28;20606;-60
2021/01/02 09:57:41;;;;;;;;;;;;;;;-146.19;100.00;63747.78;5023972;28;20405;-61
2021/01/02 10:00:08;;;;;;;;;;;;;;;-146.19;100.00;63747.78;5024134;28;19917;-60
2021/01/02 10:02:33;;;;;;;;;;;;;;;-146.19;100.00;63747.78;5023847;28;20031;-61
2021/01/02 10:04:58;;;;;;;;;;;;;;;-146.19;100.00;63747.78;5022195;28;19917;-61
2021/01/02 10:07:24;;;;;;;;;;;;;;;-146.19;100.00;63747.78;5025521;28;19971;-61
2021/01/02 10:09:49;;;;;;;;;;;;;;;-146.19;100.00;63747.78;5009764;28;20023;-61
2021/01/02 10:12:15;;;;;;;;;;;;;;;-146.19;100.00;63747.78;5022497;28;19921;-61
2021/01/02 10:14:41;;;;;;;;;;;;;;;-146.19;100.00;63747.78;5024634;28;19927;-61
2021/01/02 10:17:07;;;;;;;;;;;;;;;-146.19;100.00;63747.78;5026930;28;20054;-61
2021/01/02 10:19:33;;;;;;;;;;;;;;;-146.19;100.00;63747.78;5028566;28;20012;-62
2021/01/02 10:21:59;;;;;;;;;;;;;;;-146.19;100.00;63747.78;5029669;28;19917;-61
2021/01/02 10:24:24;;;;;;;;;;;;;;;-146.19;100.00;63747.78;5026707;28;20074;-61
2021/01/02 10:26:50;;;;;;;;;;;;;;;-146.19;100.00;63747.78;5030267;28;20023;-62
2021/01/02 10:29:15;;;;;;;;;;;;;;;-146.19;100.00;63747.78;5029742;28;19928;-60
2021/01/02 10:31:40;;;;;;;;;;;;;;;-146.19;100.00;63747.78;5028405;28;19929;-62
2021/01/02 10:34:05;;;;;;;;;;;;;;;-146.19;100.00;63747.78;5030080;28;20361;-62
2021/01/02 10:36:31;;;;;;;;;;;;;;;-146.19;100.00;63747.78;5026579;28;20421;-62
2021/01/02 10:38:56;;;;;;;;;;;;;;;-146.19;100.00;63747.78;5028443;28;19929;-60
2021/01/02 10:41:21;;;;;;;;;;;;;;;-146.19;100.00;63747.78;5028181;28;19920;-60
2021/01/02 10:43:48;;;;;;;;;;;;;;;-146.19;100.00;63747.78;5029184;28;20035;-61
2021/01/02 10:46:14;;;;;;;;;;;;;;;-146.19;100.00;63747.78;5029477;28;20256;-61
2021/01/02 10:48:39;;;;;;;;;;;;;;;-146.19;100.00;63747.78;5028582;28;19932;-61
2021/01/02 10:51:05;;;;;;;;;;;;;;;-146.19;100.00;63747.78;5029001;28;19956;-62
2021/01/02 10:53:30;;;;;;;;;;;;;;;-146.19;100.00;63747.78;5028456;28;19972;-62
2021/01/02 10:55:55;;;;;;;;;;;;;;;-146.19;100.00;63747.78;5033899;28;19920;-61
2021/01/02 10:58:20;;;;;;;;;;;;;;;-146.19;100.00;63747.78;5029450;28;19921;-61
2021/01/02 11:00:46;;;;;;;;;;;;;;;-146.19;100.00;63747.78;5028349;28;20438;-62
2021/01/02 11:03:11;;;;;;;;;;;;;;;-146.19;100.00;63747.78;5029318;28;20493;-61
2021/01/02 11:05:36;;;;;;;;;;;;;;;-146.19;100.00;63747.78;5028913;28;19921;-62
2021/01/02 11:08:02;;;;;;;;;;;;;;;-146.19;100.00;63747.78;5028668;28;19932;-61
2021/01/02 11:10:27;;;;;;;;;;;;;;;-146.19;100.00;63747.78;5026671;28;20325;-61
2021/01/02 11:12:52;;;;;;;;;;;;;;;-146.19;100.00;63747.78;5029286;28;20712;-62
2021/01/02 11:15:18;;;;;;;;;;;;;;;-146.19;100.00;63747.78;5027940;28;19925;-61
2021/01/02 11:17:43;;;;;;;;;;;;;;;-146.19;100.00;63747.78;5028933;28;19924;-62
2021/01/02 11:20:09;;;;;;;;;;;;;;;-146.19;100.00;63747.78;5028340;28;20578;-61
2021/01/02 11:22:35;;;;;;;;;;;;;;;-146.19;100.00;63747.78;5028523;28;20654;-61
2021/01/02 11:25:00;;;;;;;;;;;;;;;-146.19;100.00;63747.78;5028972;28;19921;-62
2021/01/02 11:27:25;;;;;;;;;;;;;;;-146.19;100.00;63747.78;5028670;28;20646;-61
2021/01/02 11:29:50;;;;;;;;;;;;;;;-146.19;100.00;63747.78;5027872;28;20021;-62
2021/01/02 11:32:16;;;;;;;;;;;;;;;-146.19;100.00;63747.78;5029176;28;20383;-62
2021/01/02 11:34:41;;;;;;;;;;;;;;;-146.19;100.00;63747.78;5028090;28;20372;-62
2021/01/02 11:37:08;;;;;;;;;;;;;;;-146.19;100.00;63747.78;5028582;28;20290;-61
2021/01/02 11:39:34;;;;;;;;;;;;;;;-146.19;100.00;63747.78;5028173;28;19925;-62
2021/01/02 11:42:00;;;;;;;;;;;;;;;-146.19;100.00;63747.78;5028386;28;20028;-62
2021/01/02 11:44:26;;;;;;;;;;;;;;;-146.19;100.00;63747.78;5028163;28;19924;-61
2021/01/02 11:46:52;;;;;;;;;;;;;;;-146.19;100.00;63747.78;5028270;28;19927;-61
2021/01/02 11:49:19;;;;;;;;;;;;;;;-146.19;100.00;63747.78;5027404;28;19936;-62
2021/01/02 11:51:51;;;;;;;;;;;;;;;-146.19;100.00;63747.78;5027017;28;20011;-61
2021/01/02 11:54:17;;;;;;;;;;;;;;;-146.19;100.00;63747.78;5022057;28;19928;-62
2021/01/02 11:56:42;;;;;;;;;;;;;;;-146.19;100.00;63747.78;5023868;28;19921;-61
2021/01/02 11:59:08;;;;;;;;;;;;;;;-146.19;100.00;63747.78;5025252;28;19929;-62
2021/01/02 12:01:35;;;;;;;;;;;;;;;-146.19;100.00;63747.78;5025018;28;19917;-62
2021/01/02 12:04:00;;;;;;;;;;;;;;;-146.19;100.00;63747.78;5026664;28;20402;-62
2021/01/02 12:06:29;;;;;;;;;;;;;;;-146.19;100.00;63747.78;5028397;28;19933;-61
2021/01/02 12:08:55;;;;;;;;;;;;;;;-146.19;100.00;63747.78;5027718;28;19925;-61
2021/01/02 12:11:32;;;;;;;;;;;;;;;-146.19;100.00;63747.78;5028059;28;19928;-61
2021/01/02 12:13:58;;;;;;;;;;;;;;;-146.19;100.00;63747.78;5025638;28;19932;-61
2021/01/02 12:16:43;;;;;;;;;;;;;;;-146.19;100.00;63747.78;5027616;28;19972;-61
2021/01/02 12:19:10;;;;;;;;;;;;;;;-146.19;100.00;63747.78;5020792;28;19928;-61
2021/01/02 12:21:35;;;;;;;;;;;;;;;-146.19;100.00;63747.78;5027701;28;20442;-62
2021/01/02 12:24:01;;;;;;;;;;;;;;;-146.19;100.00;63747.78;5028840;28;19929;-63
2021/01/02 12:26:26;;;;;;;;;;;;;;;-146.19;100.00;63747.78;5030217;28;20402;-61
2021/01/02 12:28:52;;;;;;;;;;;;;;;-146.19;100.00;63747.78;5031169;28;20742;-66
2021/01/02 12:31:19;;;;;;;;;;;;;;;-146.19;100.00;63747.78;5031384;28;20442;-67
2021/01/02 12:33:45;;;;;;;;;;;;;;;-146.19;100.00;63747.78;5031733;28;20345;-64
2021/01/02 12:36:11;;;;;;;;;;;;;;;-146.19;100.00;63747.78;5028454;28;19921;-64
2021/01/02 12:38:37;;;;;;;;;;;;;;;-146.19;100.00;63747.78;5031777;28;19921;-65